Aérodrome :
LOGIN :

S'inscrire | Disclaimer

   EN    FR    IT 

 










Légende :    VFR   VFR Marginal   IFR   IFR Intensif   IFR Très Intensif
Visi : 
Plafond : 
>= 8 km
>= 3000ft
5 à 8 km
1000 à 3000 ft
1500m à 5 km
500 à 1000 ft
800 à 1500m
200 à 500 ft
< 800m
< 200 ft
Symboles :   Orages  Brouillard  Fortes neiges  Fortes précipitations  Vent > 20 kt
SIGMETs :   Divers  Orages  Givrage  Turbulence  Onde Orograph.  Cendres Volcan.







- Altitude de l'aérodrome : 1306 ft
- Code IATA : ACH


LSZR - Alten Rhein

DERNIER METAR :
  • 231350Z 31006KT 280V350 CAVOK 27/18 Q1013 NOSIG RMK J

METARs EXPIRÉS :
  • 231320Z 07005KT CAVOK 24/17 Q1014 NOSIG RMK I
  • 231250Z 09007KT CAVOK 24/17 Q1015 NOSIG RMK H
  • 231220Z 07005KT 050V110 9999 FEW080 24/18 Q1015 NOSIG RMK G
  • 231150Z 05003KT 9999 FEW080 22/16 Q1016 NOSIG RMK F
  • 231120Z 05004KT 010V110 9999 FEW080 22/16 Q1017 NOSIG RMK E

TAF TAF LSZR
Valide du 23 à 12h jusqu'au 23 à 21h UTC


231125Z 2312/2321 VRB03KT 9999 FEW080
BECMG 2312/2315 26010KT
BECMG 2315/2318 26015G25KT BKN050
BECMG 2318/2320 30025G40KT
PROB40
TEMPO 2319/2321 30030G60KT TSRA SCT030CB
ATIS : +41 71 858 51 66
Pas de NOTAMs connus pour ce terrain.
1 SIGMET publié pour la FIR Switzerland (LSAS) :
 
Turbulence forte
LSAS SIGMET 1 VALID 231300/231500 LSZH
LSAS SWITZERLAND FIR SEV TURB FCST WI N4757 E00844 - N4737 E00842 - N4657 E00712 - N4654 E00704 - N4654 E00701 - N4717 E00651 - N4733 E00654 - N4757 E00844 SFC/FL100 MOV SE INTSF=



MET'MAP, la Météo Aéronautique d'un coup d'oeil ! - Copyright ORBIFLY Décembre 2007 - Disclaimer

ORBIFLY MET'MAP TEAM :

Programmation & Développement : Alexandra Zaïnal
Conception & Développement : Baudouin d'Aumeries
Co-Programmation & Développement : Marc-Olivier Méhu
Soutien technique & logistique : Manuel Goepfert

Contact : metmap@orbifly.com




SOURCES & CREDITS :

   NOAA